createdAt,value
2023-02-19T00:01:15.711Z,72.50
2023-02-19T00:03:43.799Z,72.70
2023-02-19T00:06:11.528Z,72.80
2023-02-19T00:08:39.798Z,72.80
2023-02-19T00:11:09.667Z,72.60
2023-02-19T00:13:42.338Z,72.70
2023-02-19T00:16:11.830Z,72.60
2023-02-19T00:18:40.402Z,72.60
2023-02-19T00:21:07.431Z,72.50
2023-02-19T00:23:34.929Z,72.60
2023-02-19T00:26:17.738Z,72.50
2023-02-19T00:28:47.818Z,72.50
2023-02-19T00:31:18.339Z,72.40
2023-02-19T00:33:47.734Z,72.40
2023-02-19T00:36:16.371Z,72.60
2023-02-19T00:38:44.338Z,72.50
2023-02-19T00:41:21.735Z,72.50
2023-02-19T00:44:00.000Z,72.50
2023-02-19T00:46:32.243Z,72.60
2023-02-19T00:48:59.504Z,72.60
2023-02-19T00:51:29.337Z,72.40
2023-02-19T00:53:56.452Z,72.30
2023-02-19T00:56:23.270Z,72.00
2023-02-19T00:58:49.999Z,72.10
2023-02-19T01:01:17.368Z,72.20
2023-02-19T01:03:44.132Z,72.30
2023-02-19T01:06:13.104Z,72.30
2023-02-19T01:08:42.189Z,72.10
2023-02-19T01:11:10.573Z,72.00
2023-02-19T01:13:37.890Z,71.90
2023-02-19T01:16:19.872Z,71.80
2023-02-19T01:18:47.811Z,71.90
2023-02-19T01:21:18.585Z,71.90
2023-02-19T01:23:45.723Z,71.90
2023-02-19T01:26:15.271Z,71.70
2023-02-19T01:28:42.703Z,71.60
2023-02-19T01:31:14.455Z,71.50
2023-02-19T01:33:48.506Z,71.60
2023-02-19T01:36:15.720Z,71.30
2023-02-19T01:38:42.731Z,71.30
2023-02-19T01:41:16.476Z,71.30
2023-02-19T01:44:01.925Z,71.20
2023-02-19T01:46:33.796Z,71.30
2023-02-19T01:49:17.967Z,71.30
2023-02-19T01:51:48.601Z,71.10
2023-02-19T01:54:19.808Z,71.20
2023-02-19T01:56:48.900Z,71.30
2023-02-19T01:59:17.061Z,71.20
2023-02-19T02:01:43.869Z,71.10
2023-02-19T02:04:13.422Z,71.00
2023-02-19T02:06:52.121Z,71.00
2023-02-19T02:09:38.708Z,70.70
2023-02-19T02:12:05.628Z,70.70
2023-02-19T02:14:37.328Z,70.70
2023-02-19T02:17:46.079Z,70.60
2023-02-19T02:20:15.749Z,71.20
2023-02-19T02:22:51.120Z,70.60
2023-02-19T02:25:23.698Z,70.60
2023-02-19T02:28:27.320Z,70.80
2023-02-19T02:30:59.939Z,70.60
2023-02-19T02:33:43.047Z,70.50
2023-02-19T02:36:21.717Z,70.20
2023-02-19T02:38:49.268Z,70.20
2023-02-19T02:41:16.559Z,70.30
2023-02-19T02:43:43.217Z,70.30
2023-02-19T02:46:12.525Z,70.30
2023-02-19T02:48:46.276Z,70.30
2023-02-19T02:51:32.011Z,70.20
2023-02-19T02:54:32.641Z,70.10
2023-02-19T02:56:59.822Z,70.10
2023-02-19T02:59:31.763Z,70.10
2023-02-19T03:02:11.876Z,70.10
2023-02-19T03:05:25.145Z,69.90
2023-02-19T03:08:17.551Z,69.90
2023-02-19T03:10:56.448Z,69.90
2023-02-19T03:13:49.278Z,70.10
2023-02-19T03:16:42.505Z,69.90
2023-02-19T03:19:20.370Z,70.00
2023-02-19T03:21:54.997Z,70.10
2023-02-19T03:24:46.119Z,70.30
2023-02-19T03:27:15.374Z,70.10
2023-02-19T03:29:44.711Z,70.00
2023-02-19T03:32:23.718Z,69.90
2023-02-19T03:34:58.294Z,70.10
2023-02-19T03:37:57.835Z,70.20
2023-02-19T03:40:28.211Z,70.10
2023-02-19T03:43:19.771Z,69.80
2023-02-19T03:45:57.056Z,70.00
2023-02-19T03:48:33.864Z,70.40
2023-02-19T03:51:26.960Z,70.30
2023-02-19T03:54:15.201Z,70.40
2023-02-19T03:57:17.518Z,70.40
2023-02-19T03:59:55.608Z,70.50
2023-02-19T04:02:48.496Z,70.40
2023-02-19T04:05:29.645Z,70.40
2023-02-19T04:08:01.454Z,70.10
2023-02-19T04:10:29.018Z,70.30
2023-02-19T04:13:00.848Z,70.10
2023-02-19T04:15:33.811Z,70.10
2023-02-19T04:18:05.930Z,70.10
2023-02-19T04:20:39.137Z,70.10
2023-02-19T04:23:06.454Z,70.30
2023-02-19T04:25:35.349Z,70.20
2023-02-19T04:28:03.319Z,70.10
2023-02-19T04:30:30.163Z,70.10
2023-02-19T04:32:56.866Z,69.90
2023-02-19T04:35:23.538Z,70.00
2023-02-19T04:37:50.159Z,70.00
2023-02-19T04:40:17.251Z,69.90
2023-02-19T04:42:43.987Z,69.60
2023-02-19T04:45:10.666Z,69.70
2023-02-19T04:47:37.437Z,69.50
2023-02-19T04:50:04.539Z,69.40
2023-02-19T04:52:31.253Z,69.50
2023-02-19T04:54:58.019Z,69.40
2023-02-19T04:57:24.774Z,69.20
2023-02-19T04:59:53.125Z,69.70
2023-02-19T05:02:19.916Z,69.20
2023-02-19T05:04:47.610Z,69.20
2023-02-19T05:07:14.305Z,69.40
2023-02-19T05:09:40.931Z,69.20
2023-02-19T05:12:07.590Z,69.10
2023-02-19T05:14:34.210Z,69.10
2023-02-19T05:17:00.964Z,69.10
2023-02-19T05:19:27.677Z,69.00
2023-02-19T05:21:54.357Z,69.10
2023-02-19T05:24:21.141Z,69.00
2023-02-19T05:26:48.674Z,69.00
2023-02-19T05:29:15.419Z,68.90
2023-02-19T05:31:42.487Z,68.80
2023-02-19T05:34:09.361Z,68.80
2023-02-19T05:36:37.198Z,68.50
2023-02-19T05:39:06.169Z,68.30
2023-02-19T05:41:34.013Z,68.30
2023-02-19T05:44:00.709Z,68.10
2023-02-19T05:46:29.977Z,67.70
2023-02-19T05:48:58.162Z,67.60
2023-02-19T05:51:26.519Z,67.90
2023-02-19T05:53:53.790Z,67.70
2023-02-19T05:56:26.270Z,67.70
2023-02-19T05:58:53.867Z,68.60
2023-02-19T06:01:22.619Z,68.40
2023-02-19T06:03:49.409Z,68.00
2023-02-19T06:06:18.047Z,67.40
2023-02-19T06:08:45.227Z,67.60
2023-02-19T06:11:12.336Z,67.50
2023-02-19T06:13:39.298Z,66.80
2023-02-19T06:16:07.682Z,66.30
2023-02-19T06:18:34.495Z,66.70
2023-02-19T06:21:06.207Z,66.10
2023-02-19T06:23:33.340Z,66.00
2023-02-19T06:26:16.184Z,65.80
2023-02-19T06:28:43.043Z,65.50
2023-02-19T06:31:11.379Z,66.10
2023-02-19T06:33:41.924Z,66.00
2023-02-19T06:36:15.044Z,65.70
2023-02-19T06:38:42.409Z,65.40
2023-02-19T06:41:10.438Z,64.80
2023-02-19T06:43:37.331Z,64.70
2023-02-19T06:46:06.155Z,65.00
2023-02-19T06:48:33.665Z,65.10
2023-02-19T06:51:00.568Z,65.80
2023-02-19T06:53:27.676Z,65.30
2023-02-19T06:56:01.492Z,65.60
2023-02-19T06:58:28.553Z,65.80
2023-02-19T07:00:56.622Z,65.90
2023-02-19T07:03:23.847Z,66.00
2023-02-19T07:05:50.579Z,66.10
2023-02-19T07:08:17.460Z,66.30
2023-02-19T07:10:45.522Z,66.30
2023-02-19T07:13:12.287Z,66.30
2023-02-19T07:15:38.998Z,66.10
2023-02-19T07:18:07.593Z,66.00
2023-02-19T07:20:35.291Z,66.20
2023-02-19T07:23:01.946Z,66.40
2023-02-19T07:25:28.677Z,66.90
2023-02-19T07:27:55.446Z,66.40
2023-02-19T07:30:22.198Z,66.40
2023-02-19T07:32:48.943Z,66.60
2023-02-19T07:35:15.744Z,66.70
2023-02-19T07:37:42.475Z,66.40
2023-02-19T07:40:09.391Z,66.50
2023-02-19T07:42:36.035Z,66.50
2023-02-19T07:45:02.770Z,66.40
2023-02-19T07:47:29.899Z,66.60
2023-02-19T07:49:56.600Z,66.10
2023-02-19T07:52:23.421Z,66.20
2023-02-19T07:54:50.299Z,66.40
2023-02-19T07:57:17.018Z,66.50
2023-02-19T07:59:43.691Z,66.60
2023-02-19T08:02:37.174Z,66.70
2023-02-19T08:05:05.621Z,66.80
2023-02-19T08:07:37.383Z,66.90
2023-02-19T08:10:23.801Z,67.10
2023-02-19T08:13:16.602Z,67.30
2023-02-19T08:15:43.626Z,67.60
2023-02-19T08:18:10.722Z,67.60
2023-02-19T08:20:37.558Z,67.80
2023-02-19T08:23:04.559Z,67.90
2023-02-19T08:25:31.621Z,68.00
2023-02-19T08:28:02.977Z,68.20
2023-02-19T08:30:31.387Z,68.30
2023-02-19T08:33:01.871Z,68.40
2023-02-19T08:35:29.041Z,68.50
2023-02-19T08:37:57.249Z,68.30
2023-02-19T08:40:24.654Z,68.50
2023-02-19T08:42:51.422Z,68.80
2023-02-19T08:45:19.107Z,68.90
2023-02-19T08:47:46.285Z,68.90
2023-02-19T08:50:13.117Z,69.10
2023-02-19T08:52:39.886Z,69.10
2023-02-19T08:55:06.991Z,69.30
2023-02-19T08:57:37.598Z,69.10
2023-02-19T09:00:05.485Z,69.10
2023-02-19T09:02:32.306Z,69.20
2023-02-19T09:05:00.276Z,69.00
2023-02-19T09:07:27.301Z,68.80
2023-02-19T09:09:54.098Z,68.90
2023-02-19T09:12:20.782Z,69.10
2023-02-19T09:14:47.745Z,69.10
2023-02-19T09:17:14.402Z,69.10
2023-02-19T09:19:41.047Z,69.00
2023-02-19T09:22:07.742Z,69.10
2023-02-19T09:24:34.526Z,69.20
2023-02-19T09:27:01.255Z,69.30
2023-02-19T09:29:28.844Z,69.20
2023-02-19T09:32:00.000Z,69.20
2023-02-19T09:34:28.557Z,69.20
2023-02-19T09:36:55.539Z,69.00
2023-02-19T09:39:22.326Z,68.70
2023-02-19T09:41:50.419Z,68.50
2023-02-19T09:44:24.900Z,68.50
2023-02-19T09:46:53.259Z,68.50
2023-02-19T09:49:33.703Z,68.80
2023-02-19T09:52:07.677Z,68.50
2023-02-19T09:54:37.259Z,68.60
2023-02-19T09:57:05.828Z,68.80
2023-02-19T09:59:46.651Z,69.00
2023-02-19T10:02:18.463Z,69.10
2023-02-19T10:04:47.043Z,69.00
2023-02-19T10:07:16.150Z,69.20
2023-02-19T10:09:48.371Z,68.90
2023-02-19T10:12:18.673Z,68.70
2023-02-19T10:14:49.884Z,69.30
2023-02-19T10:17:31.720Z,67.80
2023-02-19T10:19:58.580Z,67.10
2023-02-19T10:22:25.528Z,66.80
2023-02-19T10:24:56.625Z,66.40
2023-02-19T10:27:30.045Z,66.50
2023-02-19T10:29:58.859Z,66.70
2023-02-19T10:32:27.449Z,66.70
2023-02-19T10:35:15.534Z,66.80
2023-02-19T10:37:48.708Z,66.90
2023-02-19T10:40:29.047Z,67.00
2023-02-19T10:43:02.395Z,67.00
2023-02-19T10:45:39.330Z,66.80
2023-02-19T10:48:07.635Z,66.80
2023-02-19T10:50:39.282Z,67.00
2023-02-19T10:53:05.950Z,66.90
2023-02-19T10:55:37.843Z,66.90
2023-02-19T10:58:27.272Z,67.30
2023-02-19T11:01:20.263Z,66.90
2023-02-19T11:03:49.277Z,66.60
2023-02-19T11:06:18.520Z,66.20
2023-02-19T11:08:59.783Z,65.80
2023-02-19T11:11:36.930Z,66.10
2023-02-19T11:14:20.116Z,66.30
2023-02-19T11:16:50.086Z,66.50
2023-02-19T11:19:48.187Z,66.50
2023-02-19T11:22:37.461Z,66.70
2023-02-19T11:25:25.860Z,66.70
2023-02-19T11:28:20.514Z,66.60
2023-02-19T11:30:48.049Z,66.50
2023-02-19T11:33:19.831Z,66.50
2023-02-19T11:35:52.448Z,66.40
2023-02-19T11:38:19.648Z,66.30
2023-02-19T11:40:57.779Z,66.50
2023-02-19T11:43:53.293Z,67.30
2023-02-19T11:46:48.145Z,66.60
2023-02-19T11:49:24.642Z,66.50
2023-02-19T11:52:00.138Z,66.50
2023-02-19T11:54:41.890Z,66.30
2023-02-19T11:57:36.674Z,66.30
2023-02-19T12:00:39.325Z,66.40
2023-02-19T12:03:44.182Z,66.50
2023-02-19T12:06:23.939Z,66.10
2023-02-19T12:09:06.471Z,65.90
2023-02-19T12:12:03.546Z,65.70
2023-02-19T12:14:51.774Z,65.00
2023-02-19T12:17:41.435Z,64.90
2023-02-19T12:20:33.847Z,64.30
2023-02-19T12:23:32.346Z,63.90
2023-02-19T12:26:28.626Z,63.10
2023-02-19T12:29:32.652Z,63.10
2023-02-19T12:32:20.446Z,62.80
2023-02-19T12:35:08.945Z,62.20
2023-02-19T12:37:38.637Z,61.90
2023-02-19T12:40:20.470Z,64.00
2023-02-19T12:43:26.089Z,62.10
2023-02-19T12:46:20.606Z,62.30
2023-02-19T12:48:55.638Z,60.90
2023-02-19T12:51:33.028Z,60.90
2023-02-19T12:54:23.872Z,61.10
2023-02-19T12:57:21.599Z,61.00
2023-02-19T13:00:00.068Z,60.60
2023-02-19T13:02:46.186Z,60.80
2023-02-19T13:05:25.734Z,60.60
2023-02-19T13:08:25.217Z,60.20
2023-02-19T13:10:58.930Z,59.60
2023-02-19T13:13:35.603Z,59.50
2023-02-19T13:16:10.235Z,59.30
2023-02-19T13:18:46.820Z,59.00
2023-02-19T13:21:35.661Z,58.80
2023-02-19T13:24:08.712Z,58.80
2023-02-19T13:27:08.575Z,59.10
2023-02-19T13:29:51.340Z,59.00
2023-02-19T13:32:58.181Z,58.70
2023-02-19T13:35:43.529Z,59.10
2023-02-19T13:38:14.866Z,58.40
2023-02-19T13:40:52.417Z,58.30
2023-02-19T13:43:27.778Z,57.80
2023-02-19T13:46:07.779Z,57.60
2023-02-19T13:48:39.761Z,57.40
2023-02-19T13:51:24.642Z,58.00
2023-02-19T13:53:58.363Z,57.80
2023-02-19T13:56:34.126Z,58.10
2023-02-19T13:59:24.499Z,58.20
2023-02-19T14:01:54.326Z,58.30
2023-02-19T14:04:47.399Z,58.20
2023-02-19T14:07:13.997Z,58.10
2023-02-19T14:09:40.862Z,58.30
2023-02-19T14:12:07.483Z,58.30
2023-02-19T14:14:35.510Z,59.00
2023-02-19T14:17:17.629Z,58.80
2023-02-19T14:19:46.100Z,59.10
2023-02-19T14:22:47.801Z,58.90
2023-02-19T14:25:52.772Z,58.20
2023-02-19T14:28:35.518Z,58.90
2023-02-19T14:31:11.627Z,59.00
2023-02-19T14:33:43.709Z,58.70
2023-02-19T14:36:44.231Z,58.70
2023-02-19T14:39:13.504Z,58.40
2023-02-19T14:41:43.795Z,58.50
2023-02-19T14:44:48.779Z,58.30
2023-02-19T14:47:19.612Z,58.20
2023-02-19T14:49:49.103Z,58.00
2023-02-19T14:52:19.840Z,57.10
2023-02-19T14:54:53.972Z,57.80
2023-02-19T14:57:32.799Z,57.80
2023-02-19T15:00:01.768Z,58.20
2023-02-19T15:02:30.743Z,56.90
2023-02-19T15:04:58.043Z,56.60
2023-02-19T15:07:33.899Z,57.00
2023-02-19T15:10:05.406Z,56.10
2023-02-19T15:12:47.778Z,56.50
2023-02-19T15:15:28.177Z,57.00
2023-02-19T15:17:57.148Z,56.80
2023-02-19T15:20:27.864Z,57.10
2023-02-19T15:22:56.218Z,56.70
2023-02-19T15:25:26.990Z,56.40
2023-02-19T15:27:53.769Z,57.00
2023-02-19T15:30:29.484Z,57.60
2023-02-19T15:32:59.026Z,57.60
2023-02-19T15:35:27.872Z,57.00
2023-02-19T15:37:55.370Z,57.20
2023-02-19T15:40:28.361Z,57.60
2023-02-19T15:42:55.300Z,57.90
2023-02-19T15:45:44.823Z,57.80
2023-02-19T15:48:24.217Z,57.90
2023-02-19T15:51:04.865Z,57.70
2023-02-19T15:53:34.209Z,57.60
2023-02-19T15:56:14.787Z,57.70
2023-02-19T15:58:51.034Z,58.00
2023-02-19T16:01:25.156Z,59.20
2023-02-19T16:03:54.093Z,58.80
2023-02-19T16:06:22.101Z,59.20
2023-02-19T16:09:01.769Z,59.40
2023-02-19T16:11:47.482Z,59.90
2023-02-19T16:14:18.961Z,60.20
2023-02-19T16:16:47.972Z,60.10
2023-02-19T16:19:32.509Z,60.50
2023-02-19T16:22:00.619Z,60.60
2023-02-19T16:24:38.023Z,60.30
2023-02-19T16:27:07.485Z,60.10
2023-02-19T16:29:34.545Z,60.00
2023-02-19T16:32:04.382Z,59.70
2023-02-19T16:34:39.763Z,59.50
2023-02-19T16:37:42.302Z,59.60
2023-02-19T16:40:09.013Z,59.80
2023-02-19T16:43:24.563Z,59.80
2023-02-19T16:45:51.336Z,59.60
2023-02-19T16:48:20.967Z,59.70
2023-02-19T16:50:47.667Z,59.60
2023-02-19T16:53:20.631Z,60.10
2023-02-19T16:55:48.435Z,59.70
2023-02-19T16:58:15.219Z,59.90
2023-02-19T17:00:42.375Z,60.10
2023-02-19T17:03:17.287Z,59.80
2023-02-19T17:05:44.866Z,59.60
2023-02-19T17:08:26.406Z,59.10
2023-02-19T17:10:55.826Z,59.40
2023-02-19T17:13:22.807Z,58.40
2023-02-19T17:15:50.576Z,58.00
2023-02-19T17:18:18.463Z,57.70
2023-02-19T17:20:51.742Z,57.80
2023-02-19T17:23:18.510Z,57.80
2023-02-19T17:25:45.195Z,57.70
2023-02-19T17:30:40.190Z,57.60
2023-02-19T17:33:07.357Z,57.40
2023-02-19T17:35:34.370Z,57.00
2023-02-19T17:38:01.078Z,57.50
2023-02-19T17:40:33.723Z,57.70
2023-02-19T17:43:01.302Z,57.70
2023-02-19T17:45:28.372Z,57.50
2023-02-19T17:47:55.317Z,57.30
2023-02-19T17:50:27.690Z,57.20
2023-02-19T17:52:54.422Z,57.80
2023-02-19T17:55:21.200Z,57.70
2023-02-19T17:57:50.620Z,57.80
2023-02-19T18:00:22.937Z,57.40
2023-02-19T18:02:49.725Z,57.30
2023-02-19T18:05:16.899Z,57.60
2023-02-19T18:07:44.198Z,58.20
2023-02-19T18:10:11.298Z,58.10
2023-02-19T18:12:39.328Z,57.70
2023-02-19T18:15:08.039Z,57.50
2023-02-19T18:17:35.107Z,57.50
2023-02-19T18:20:01.869Z,57.60
2023-02-19T18:22:28.536Z,57.00
2023-02-19T18:24:55.458Z,57.20
2023-02-19T18:27:23.502Z,57.40
2023-02-19T18:29:52.114Z,56.90
2023-02-19T18:32:21.084Z,57.00
2023-02-19T18:34:52.615Z,56.70
2023-02-19T18:37:20.307Z,56.70
2023-02-19T18:39:47.238Z,57.20
2023-02-19T18:42:14.662Z,56.90
2023-02-19T18:44:41.652Z,56.70
2023-02-19T18:47:09.890Z,56.80
2023-02-19T18:49:36.631Z,57.10
2023-02-19T18:52:03.649Z,57.10
2023-02-19T18:54:31.546Z,57.10
2023-02-19T18:57:03.740Z,57.20
2023-02-19T18:59:31.159Z,57.00
2023-02-19T19:01:58.322Z,57.10
2023-02-19T19:04:24.976Z,57.50
2023-02-19T19:06:51.760Z,57.70
2023-02-19T19:09:18.790Z,57.70
2023-02-19T19:11:46.593Z,57.80
2023-02-19T19:14:14.333Z,57.70
2023-02-19T19:16:42.208Z,57.70
2023-02-19T19:19:09.110Z,57.70
2023-02-19T19:21:35.798Z,57.80
2023-02-19T19:24:02.489Z,58.00
2023-02-19T19:26:29.171Z,58.10
2023-02-19T19:28:55.858Z,58.30
2023-02-19T19:31:24.722Z,58.40
2023-02-19T19:33:51.903Z,58.50
2023-02-19T19:36:21.273Z,59.30
2023-02-19T19:38:48.662Z,58.80
2023-02-19T19:41:18.183Z,58.70
2023-02-19T19:43:44.944Z,58.60
2023-02-19T19:46:11.887Z,58.50
2023-02-19T19:48:41.617Z,58.50
2023-02-19T19:51:08.234Z,58.50
2023-02-19T19:53:35.192Z,58.60
2023-02-19T19:56:02.250Z,58.60
2023-02-19T19:58:29.217Z,58.70
2023-02-19T20:00:56.167Z,58.80
2023-02-19T20:03:22.990Z,58.80
2023-02-19T20:05:52.663Z,59.00
2023-02-19T20:08:19.705Z,58.80
2023-02-19T20:10:46.770Z,58.80
2023-02-19T20:13:24.301Z,58.80
2023-02-19T20:15:51.974Z,58.70
2023-02-19T20:18:19.141Z,58.60
2023-02-19T20:20:45.906Z,58.70
2023-02-19T20:23:12.629Z,58.80
2023-02-19T20:25:39.325Z,58.70
2023-02-19T20:28:06.089Z,58.70
2023-02-19T20:30:32.751Z,58.60
2023-02-19T20:32:59.657Z,58.60
2023-02-19T20:35:28.607Z,58.70
2023-02-19T20:37:55.766Z,58.90
2023-02-19T20:40:27.682Z,58.70
2023-02-19T20:42:54.471Z,58.70
2023-02-19T20:45:21.465Z,58.60
2023-02-19T20:47:48.149Z,58.50
2023-02-19T20:50:17.441Z,58.60
2023-02-19T20:52:44.758Z,58.80
2023-02-19T20:55:11.601Z,58.80
2023-02-19T20:57:38.255Z,58.70
2023-02-19T21:00:06.038Z,58.70
2023-02-19T21:02:32.827Z,58.70
2023-02-19T21:05:01.251Z,58.70
2023-02-19T21:07:27.937Z,58.70
2023-02-19T21:09:54.816Z,58.70
2023-02-19T21:12:22.555Z,58.60
2023-02-19T21:14:49.287Z,58.70
2023-02-19T21:17:16.021Z,58.60
2023-02-19T21:19:42.788Z,58.40
2023-02-19T21:22:09.434Z,58.60
2023-02-19T21:27:03.434Z,58.80
2023-02-19T21:29:30.251Z,59.50
2023-02-19T21:31:58.255Z,59.80
2023-02-19T21:34:28.246Z,60.00
2023-02-19T21:39:24.587Z,60.20
2023-02-19T21:41:51.465Z,61.20
2023-02-19T21:44:18.694Z,61.60
2023-02-19T21:46:45.467Z,61.80
2023-02-19T21:49:12.933Z,62.00
2023-02-19T21:51:41.713Z,62.30
2023-02-19T21:54:08.834Z,62.30
2023-02-19T21:56:36.710Z,62.10
2023-02-19T21:59:04.148Z,62.20
2023-02-19T22:04:07.231Z,62.60
2023-02-19T22:06:34.390Z,63.00
2023-02-19T22:09:01.490Z,63.10
2023-02-19T22:11:28.537Z,63.10
2023-02-19T22:13:56.328Z,63.20
2023-02-19T22:16:23.721Z,63.30
2023-02-19T22:18:52.352Z,63.30
2023-02-19T22:21:20.248Z,63.30
2023-02-19T22:23:47.899Z,63.40
2023-02-19T22:26:31.280Z,63.40
2023-02-19T22:28:59.493Z,63.50
2023-02-19T22:31:28.078Z,63.50
2023-02-19T22:33:56.064Z,63.40
2023-02-19T22:36:25.173Z,63.40
2023-02-19T22:38:52.851Z,63.40
2023-02-19T22:41:21.294Z,63.40
2023-02-19T22:43:50.036Z,63.40
2023-02-19T22:46:20.138Z,63.40
2023-02-19T22:48:46.940Z,63.40
2023-02-19T22:51:16.003Z,63.40
2023-02-19T22:53:56.843Z,63.40
2023-02-19T22:56:26.949Z,63.40
2023-02-19T22:58:55.035Z,63.30
2023-02-19T23:01:22.153Z,63.40
2023-02-19T23:03:53.275Z,63.20
2023-02-19T23:06:31.725Z,63.40
2023-02-19T23:09:10.333Z,63.40
2023-02-19T23:11:39.122Z,63.40
2023-02-19T23:14:06.896Z,63.50
2023-02-19T23:16:35.962Z,63.60
2023-02-19T23:19:07.002Z,63.60
2023-02-19T23:21:33.715Z,63.70
2023-02-19T23:24:00.625Z,63.70
2023-02-19T23:26:27.296Z,63.90
2023-02-19T23:28:55.244Z,63.90
2023-02-19T23:31:22.188Z,64.10
2023-02-19T23:33:49.006Z,64.20
2023-02-19T23:36:16.595Z,64.30
2023-02-19T23:38:46.792Z,64.30
2023-02-19T23:41:16.179Z,64.30
2023-02-19T23:43:42.928Z,64.30
2023-02-19T23:46:13.458Z,64.40
2023-02-19T23:48:40.459Z,64.50
2023-02-19T23:51:07.257Z,64.40
2023-02-19T23:53:33.927Z,64.30
2023-02-19T23:56:00.896Z,64.40
2023-02-19T23:58:27.622Z,64.40
